RPi & Temperatures at JO21ut

Last graph updates: Wednesday 08 July 2020 09:56 CEST

Sunrise: 05:26 & Sunset: 21:57 The Sun is currently visible at an elevation of 38.69 degrees and azimut of 103 and 152093153 Km from the Earth
Moonrise: 24:12 & Moonset: 8:45 Waning Gibbous Moon The Moon is 396099 Km from the Earth
Find here more details on MARS.

10:01:02 up 32 days, 8:07, 0 users, load average: 2.01, 1.46, 1.12
Current CPU frequency is: 1000 Mhz
Current GPU temperature: 32.014°C
Current inside temperature is 21.6°C with a humidity of 62.8%
Second inside temperature is 21.7°C with a pressure of 1011.48 Hpa (29.64 inHg) and an uncorrected altitude of 14.66 m
ds18b20 now showing 21.4°C

All the sensors I use, DHT22 | BMP085 | MPU6050 | BH1750FVI | MMA7455 | HMC5883L | MPL3115A2 | DS1307 | HTU21 | AM2321 | DS3231 | INA219 | LM75A , and it's current readout can be viewed here please be patient as it needs to read all sensors data. The page loads after about 10 seconds. In our forum more details can be found such as the used software/sources. Feel free to add yours also..


Pressure BMP085
Pressure BMP085
Pressure BMP085
Pressure BMP085
PI CPU Temp
Inet Volkel temp
Inside temp BMP085
Humidity BMP085
PI CPU Temp
Inet Volkel temp
Inside temp BMP085
Humidity BMP085
PI CPU Temp
Inet Volkel temp
Inside temp BMP085
Humidity BMP085
PI CPU Temp
Inet Volkel temp
Inside temp BMP085
Humidity BMP085
PI CPU Temp
Inet Volkel temp
Inside temp BMP085
Humidity BMP085
Inside light BH1750FV
Inside light BH1750FV
Inside light BH1750FV
Inside light BH1750FV
Inside light BH1750FV
Inside light BH1750FV
Sunlight hours
 

Sun & Moon position graph 
Created with jpgraph 4.3.1


Wijchen weather

Weer Widget
ScreenSaver yr.no

Sun Moon Earth


EHEH 080756Z AUTO 20006KT 170V230 9999 DZRA SCT006 BKN007 OVC011 14/13 Q1015 YLO 22008KT 9999 FEW006 SCT007 BKN025 TEMPO 4500 RADZ SCT003 BKN005 BKN008 EHEH 080756Z AUTO 20006KT 170V230 9999 DZRA SCT006 BKN007 OVC011 14/13 Q1015 YLO 22008KT 9999 FEW006 SCT007 BKN025 TEMPO 4500 RADZ SCT003 BKN005 BKN008 EHEH 080756Z AUTO 20006KT 170V230 9999 DZRA SCT006 BKN007 OVC011 14/13 Q1015 YLO 22008KT 9999 FEW006 SCT007 BKN025 TEMPO 4500 RADZ SCT003 BKN005 BKN008

Weather data from Volkel [NL] EHVK


5 minutes ago, at 07:56 UTC, the wind was calm in Volkel [EHVK], Netherlands. The temperature was 14 °C (57 °F) with a dewpoint of 13 °C (55 °F), and the pressure was 1,015 hPa (29.97 inHg). The relative humidity was 93.7%. There were scattered clouds at a height of 183 meter (600 feet), broken clouds at a height of 213 meter (700 feet) and overcast at a height of 335 meter (1100 feet). The visibility was >10 kilometers (>6.2 miles). Current weather is Moderate Drizzle Rain .




View code:

Contact me  |  My Raspberry PI forum